sensor_id;sensor_type;location;lat;lon;timestamp;pressure;altitude;pressure_sealevel;temperature;humidity
29371;BME280;16357;52.188;7.838;2022-10-26T00:00:10;100865.31;;;12.89;68.64
29371;BME280;16357;52.188;7.838;2022-10-26T00:02:37;100872.38;;;12.90;68.44
29371;BME280;16357;52.188;7.838;2022-10-26T00:05:04;100873.22;;;12.90;68.83
29371;BME280;16357;52.188;7.838;2022-10-26T00:07:30;100863.28;;;12.91;68.76
29371;BME280;16357;52.188;7.838;2022-10-26T00:09:57;100859.59;;;12.92;68.46
29371;BME280;16357;52.188;7.838;2022-10-26T00:12:23;100867.50;;;12.93;68.45
29371;BME280;16357;52.188;7.838;2022-10-26T00:14:50;100860.25;;;12.94;68.35
29371;BME280;16357;52.188;7.838;2022-10-26T00:17:16;100864.63;;;12.95;68.55
29371;BME280;16357;52.188;7.838;2022-10-26T00:19:43;100861.09;;;12.94;68.26
29371;BME280;16357;52.188;7.838;2022-10-26T00:22:09;100858.41;;;12.94;68.35
29371;BME280;16357;52.188;7.838;2022-10-26T00:24:36;100857.56;;;12.94;68.31
29371;BME280;16357;52.188;7.838;2022-10-26T00:27:02;100859.25;;;12.95;68.36
29371;BME280;16357;52.188;7.838;2022-10-26T00:29:28;100862.94;;;12.94;68.10
29371;BME280;16357;52.188;7.838;2022-10-26T00:31:55;100866.66;;;12.93;68.03
29371;BME280;16357;52.188;7.838;2022-10-26T00:34:24;100868.34;;;12.94;67.90
29371;BME280;16357;52.188;7.838;2022-10-26T00:36:50;100869.53;;;12.91;68.22
29371;BME280;16357;52.188;7.838;2022-10-26T00:39:17;100867.84;;;12.90;68.14
29371;BME280;16357;52.188;7.838;2022-10-26T00:41:43;100862.63;;;12.89;68.07
29371;BME280;16357;52.188;7.838;2022-10-26T00:47:24;100868.00;;;12.89;67.98
29371;BME280;16357;52.188;7.838;2022-10-26T00:49:54;100859.44;;;12.85;68.29
29371;BME280;16357;52.188;7.838;2022-10-26T00:52:22;100862.28;;;12.84;68.38
29371;BME280;16357;52.188;7.838;2022-10-26T00:54:49;100860.59;;;12.83;68.42
29371;BME280;16357;52.188;7.838;2022-10-26T00:57:17;100859.78;;;12.82;68.39
29371;BME280;16357;52.188;7.838;2022-10-26T00:59:44;100858.91;;;12.82;68.38
29371;BME280;16357;52.188;7.838;2022-10-26T01:02:11;100866.97;;;12.82;68.52
29371;BME280;16357;52.188;7.838;2022-10-26T01:04:38;100857.25;;;12.81;68.27
29371;BME280;16357;52.188;7.838;2022-10-26T01:07:06;100858.06;;;12.81;68.58
29371;BME280;16357;52.188;7.838;2022-10-26T01:09:34;100857.25;;;12.81;68.59
29371;BME280;16357;52.188;7.838;2022-10-26T01:12:01;100842.09;;;12.80;68.39
29371;BME280;16357;52.188;7.838;2022-10-26T01:14:27;100849.16;;;12.81;68.59
29371;BME280;16357;52.188;7.838;2022-10-26T01:17:08;100846.47;;;12.81;68.20
29371;BME280;16357;52.188;7.838;2022-10-26T01:22:28;100831.34;;;12.80;68.25
29371;BME280;16357;52.188;7.838;2022-10-26T01:25:02;100832.31;;;12.79;68.21
29371;BME280;16357;52.188;7.838;2022-10-26T01:27:40;100829.28;;;12.82;68.15
29371;BME280;16357;52.188;7.838;2022-10-26T01:30:39;100823.25;;;12.80;67.85
29371;BME280;16357;52.188;7.838;2022-10-26T01:33:25;100819.88;;;12.78;67.94
29371;BME280;16357;52.188;7.838;2022-10-26T01:36:12;100821.06;;;12.75;67.96
29371;BME280;16357;52.188;7.838;2022-10-26T01:38:56;100822.94;;;12.74;68.10
29371;BME280;16357;52.188;7.838;2022-10-26T01:41:30;100812.31;;;12.73;68.24
29371;BME280;16357;52.188;7.838;2022-10-26T01:44:02;100819.56;;;12.72;68.26
29371;BME280;16357;52.188;7.838;2022-10-26T01:46:34;100816.84;;;12.72;68.29
29371;BME280;16357;52.188;7.838;2022-10-26T01:49:07;100815.84;;;12.73;68.50
29371;BME280;16357;52.188;7.838;2022-10-26T01:51:34;100806.09;;;12.72;68.78
29371;BME280;16357;52.188;7.838;2022-10-26T01:54:01;100805.06;;;12.73;68.87
29371;BME280;16357;52.188;7.838;2022-10-26T01:56:29;100803.06;;;12.76;68.87
29371;BME280;16357;52.188;7.838;2022-10-26T02:04:53;100793.31;;;12.83;68.76
29371;BME280;16357;52.188;7.838;2022-10-26T02:07:38;100792.13;;;12.85;68.60
29371;BME280;16357;52.188;7.838;2022-10-26T02:15:21;100785.88;;;12.93;68.60
29371;BME280;16357;52.188;7.838;2022-10-26T02:18:26;100782.00;;;12.95;68.58
29371;BME280;16357;52.188;7.838;2022-10-26T02:20:56;100763.50;;;13.01;68.33
29371;BME280;16357;52.188;7.838;2022-10-26T02:23:25;100768.69;;;13.02;68.31
29371;BME280;16357;52.188;7.838;2022-10-26T02:25:55;100772.06;;;13.04;68.54
29371;BME280;16357;52.188;7.838;2022-10-26T02:28:31;100776.25;;;13.07;68.25
29371;BME280;16357;52.188;7.838;2022-10-26T02:31:00;100770.03;;;13.06;68.34
29371;BME280;16357;52.188;7.838;2022-10-26T02:33:30;100769.69;;;13.09;68.25
29371;BME280;16357;52.188;7.838;2022-10-26T02:36:00;100764.97;;;13.11;68.22
29371;BME280;16357;52.188;7.838;2022-10-26T02:38:28;100766.50;;;13.14;68.21
29371;BME280;16357;52.188;7.838;2022-10-26T02:40:56;100761.75;;;13.16;68.32
29371;BME280;16357;52.188;7.838;2022-10-26T02:43:25;100760.56;;;13.18;68.07
29371;BME280;16357;52.188;7.838;2022-10-26T02:45:56;100745.06;;;13.21;67.86
29371;BME280;16357;52.188;7.838;2022-10-26T02:48:24;100744.91;;;13.22;67.88
29371;BME280;16357;52.188;7.838;2022-10-26T02:53:52;100750.66;;;13.27;67.67
29371;BME280;16357;52.188;7.838;2022-10-26T02:56:24;100746.94;;;13.28;67.50
29371;BME280;16357;52.188;7.838;2022-10-26T02:58:57;100745.91;;;13.29;67.36
29371;BME280;16357;52.188;7.838;2022-10-26T03:01:26;100744.22;;;13.28;67.48
29371;BME280;16357;52.188;7.838;2022-10-26T03:03:56;100744.06;;;13.30;67.31
29371;BME280;16357;52.188;7.838;2022-10-26T03:06:23;100742.38;;;13.29;67.25
29371;BME280;16357;52.188;7.838;2022-10-26T03:08:51;100746.78;;;13.30;67.07
29371;BME280;16357;52.188;7.838;2022-10-26T03:11:17;100741.38;;;13.30;67.09
29371;BME280;16357;52.188;7.838;2022-10-26T03:13:44;100745.91;;;13.29;67.09
29371;BME280;16357;52.188;7.838;2022-10-26T03:16:10;100739.88;;;13.27;66.87
29371;BME280;16357;52.188;7.838;2022-10-26T03:18:37;100739.00;;;13.27;66.69
29371;BME280;16357;52.188;7.838;2022-10-26T03:21:03;100739.88;;;13.27;66.72
29371;BME280;16357;52.188;7.838;2022-10-26T03:23:30;100739.16;;;13.25;66.66
29371;BME280;16357;52.188;7.838;2022-10-26T03:25:57;100734.78;;;13.24;66.51
29371;BME280;16357;52.188;7.838;2022-10-26T03:28:24;100731.44;;;13.22;66.25
29371;BME280;16357;52.188;7.838;2022-10-26T03:30:51;100735.13;;;13.21;66.69
29371;BME280;16357;52.188;7.838;2022-10-26T03:33:17;100736.31;;;13.18;66.60
29371;BME280;16357;52.188;7.838;2022-10-26T03:35:44;100733.97;;;13.15;66.49
29371;BME280;16357;52.188;7.838;2022-10-26T03:38:10;100735.00;;;13.14;66.60
29371;BME280;16357;52.188;7.838;2022-10-26T03:40:41;100735.34;;;13.11;66.59
29371;BME280;16357;52.188;7.838;2022-10-26T03:43:07;100732.81;;;13.10;66.55
29371;BME280;16357;52.188;7.838;2022-10-26T03:45:34;100730.28;;;13.08;66.80
29371;BME280;16357;52.188;7.838;2022-10-26T03:48:00;100725.25;;;13.05;66.66
29371;BME280;16357;52.188;7.838;2022-10-26T03:50:26;100720.88;;;13.04;66.81
29371;BME280;16357;52.188;7.838;2022-10-26T03:52:53;100729.97;;;13.03;67.12
29371;BME280;16357;52.188;7.838;2022-10-26T03:55:19;100732.66;;;13.03;67.17
29371;BME280;16357;52.188;7.838;2022-10-26T03:57:46;100739.75;;;13.04;67.39
29371;BME280;16357;52.188;7.838;2022-10-26T04:00:14;100737.72;;;13.06;67.39
29371;BME280;16357;52.188;7.838;2022-10-26T04:02:43;100723.22;;;13.07;67.40
29371;BME280;16357;52.188;7.838;2022-10-26T04:05:12;100735.66;;;13.08;67.65
29371;BME280;16357;52.188;7.838;2022-10-26T04:07:39;100730.97;;;13.10;67.45
29371;BME280;16357;52.188;7.838;2022-10-26T04:10:06;100733.31;;;13.13;67.37
29371;BME280;16357;52.188;7.838;2022-10-26T04:12:35;100727.59;;;13.16;67.26
29371;BME280;16357;52.188;7.838;2022-10-26T04:15:03;100729.06;;;13.19;67.26
29371;BME280;16357;52.188;7.838;2022-10-26T04:17:31;100726.88;;;13.23;67.14
29371;BME280;16357;52.188;7.838;2022-10-26T04:19:58;100728.56;;;13.24;66.99
29371;BME280;16357;52.188;7.838;2022-10-26T04:22:24;100737.19;;;13.27;67.14
29371;BME280;16357;52.188;7.838;2022-10-26T04:24:50;100726.22;;;13.29;67.05
29371;BME280;16357;52.188;7.838;2022-10-26T04:27:17;100735.81;;;13.31;67.25
29371;BME280;16357;52.188;7.838;2022-10-26T04:29:43;100720.47;;;13.32;67.08
29371;BME280;16357;52.188;7.838;2022-10-26T04:32:10;100727.38;;;13.34;67.15
29371;BME280;16357;52.188;7.838;2022-10-26T04:34:36;100729.91;;;13.36;66.94
29371;BME280;16357;52.188;7.838;2022-10-26T04:37:02;100719.94;;;13.36;67.09
29371;BME280;16357;52.188;7.838;2022-10-26T04:39:29;100721.47;;;13.39;66.97
29371;BME280;16357;52.188;7.838;2022-10-26T04:41:55;100720.44;;;13.40;67.01
29371;BME280;16357;52.188;7.838;2022-10-26T04:44:22;100715.72;;;13.42;66.84
29371;BME280;16357;52.188;7.838;2022-10-26T04:46:48;100714.72;;;13.43;66.94
29371;BME280;16357;52.188;7.838;2022-10-26T04:49:14;100709.97;;;13.45;66.88
29371;BME280;16357;52.188;7.838;2022-10-26T04:51:41;100718.72;;;13.47;67.09
29371;BME280;16357;52.188;7.838;2022-10-26T04:54:07;100716.69;;;13.49;67.13
29371;BME280;16357;52.188;7.838;2022-10-26T04:56:34;100720.91;;;13.52;67.03
29371;BME280;16357;52.188;7.838;2022-10-26T04:59:01;100712.66;;;13.53;66.92
29371;BME280;16357;52.188;7.838;2022-10-26T05:01:29;100717.69;;;13.56;66.86
29371;BME280;16357;52.188;7.838;2022-10-26T05:03:56;100714.78;;;13.58;66.71
29371;BME280;16357;52.188;7.838;2022-10-26T05:06:22;100722.72;;;13.59;66.91
29371;BME280;16357;52.188;7.838;2022-10-26T05:08:49;100720.69;;;13.61;66.73
29371;BME280;16357;52.188;7.838;2022-10-26T05:11:15;100723.03;;;13.65;66.85
29371;BME280;16357;52.188;7.838;2022-10-26T05:13:42;100724.53;;;13.67;66.83
29371;BME280;16357;52.188;7.838;2022-10-26T05:16:08;100725.34;;;13.68;66.68
29371;BME280;16357;52.188;7.838;2022-10-26T05:18:34;100719.81;;;13.69;66.66
29371;BME280;16357;52.188;7.838;2022-10-26T05:21:01;100722.31;;;13.71;66.48
29371;BME280;16357;52.188;7.838;2022-10-26T05:23:27;100720.28;;;13.73;66.60
29371;BME280;16357;52.188;7.838;2022-10-26T05:25:54;100719.25;;;13.74;66.57
29371;BME280;16357;52.188;7.838;2022-10-26T05:28:21;100724.63;;;13.74;66.58
29371;BME280;16357;52.188;7.838;2022-10-26T05:30:48;100725.31;;;13.76;66.54
29371;BME280;16357;52.188;7.838;2022-10-26T05:33:14;100727.16;;;13.75;66.54
29371;BME280;16357;52.188;7.838;2022-10-26T05:35:41;100731.53;;;13.76;66.25
29371;BME280;16357;52.188;7.838;2022-10-26T05:38:15;100735.06;;;13.77;66.22
29371;BME280;16357;52.188;7.838;2022-10-26T05:40:49;100731.38;;;13.78;66.26
29371;BME280;16357;52.188;7.838;2022-10-26T05:43:16;100736.94;;;13.76;66.27
29371;BME280;16357;52.188;7.838;2022-10-26T05:45:43;100736.09;;;13.76;66.35
29371;BME280;16357;52.188;7.838;2022-10-26T05:48:09;100737.13;;;13.75;66.46
29371;BME280;16357;52.188;7.838;2022-10-26T05:50:36;100733.56;;;13.74;66.63
29371;BME280;16357;52.188;7.838;2022-10-26T05:53:02;100737.13;;;13.75;66.63
29371;BME280;16357;52.188;7.838;2022-10-26T05:55:29;100738.94;;;13.74;66.89
29371;BME280;16357;52.188;7.838;2022-10-26T05:57:56;100743.34;;;13.75;66.63
29371;BME280;16357;52.188;7.838;2022-10-26T06:00:25;100742.50;;;13.75;66.44
29371;BME280;16357;52.188;7.838;2022-10-26T06:03:16;100745.00;;;13.76;66.54
29371;BME280;16357;52.188;7.838;2022-10-26T06:05:58;100750.41;;;13.76;66.38
29371;BME280;16357;52.188;7.838;2022-10-26T06:08:29;100756.00;;;13.75;66.65
29371;BME280;16357;52.188;7.838;2022-10-26T06:10:56;100756.00;;;13.75;66.70
29371;BME280;16357;52.188;7.838;2022-10-26T06:13:24;100760.53;;;13.74;66.72
29371;BME280;16357;52.188;7.838;2022-10-26T06:22:19;100758.13;;;13.79;66.77
29371;BME280;16357;52.188;7.838;2022-10-26T06:24:59;100749.88;;;13.81;66.90
29371;BME280;16357;52.188;7.838;2022-10-26T06:27:40;100751.38;;;13.83;66.74
29371;BME280;16357;52.188;7.838;2022-10-26T06:30:09;100762.00;;;13.85;67.14
29371;BME280;16357;52.188;7.838;2022-10-26T06:32:43;100766.00;;;13.89;67.11
29371;BME280;16357;52.188;7.838;2022-10-26T06:37:42;100762.44;;;13.97;67.12
29371;BME280;16357;52.188;7.838;2022-10-26T06:40:11;100756.69;;;14.00;67.17
29371;BME280;16357;52.188;7.838;2022-10-26T06:42:40;100760.50;;;14.05;67.21
29371;BME280;16357;52.188;7.838;2022-10-26T06:45:11;100758.13;;;14.11;67.25
29371;BME280;16357;52.188;7.838;2022-10-26T06:47:56;100755.72;;;14.16;67.10
29371;BME280;16357;52.188;7.838;2022-10-26T06:50:36;100755.03;;;14.22;66.94
29371;BME280;16357;52.188;7.838;2022-10-26T06:55:49;100750.19;;;14.32;67.02
29371;BME280;16357;52.188;7.838;2022-10-26T06:58:20;100761.13;;;14.39;66.85
29371;BME280;16357;52.188;7.838;2022-10-26T07:00:50;100755.34;;;14.42;66.90
29371;BME280;16357;52.188;7.838;2022-10-26T07:03:17;100754.63;;;14.48;66.57
29371;BME280;16357;52.188;7.838;2022-10-26T07:05:44;100757.47;;;14.55;66.65
29371;BME280;16357;52.188;7.838;2022-10-26T07:08:11;100761.31;;;14.60;66.68
29371;BME280;16357;52.188;7.838;2022-10-26T07:10:38;100758.72;;;14.67;66.62
29371;BME280;16357;52.188;7.838;2022-10-26T07:13:05;100761.72;;;14.72;66.44
29371;BME280;16357;52.188;7.838;2022-10-26T07:15:32;100764.72;;;14.77;66.41
29371;BME280;16357;52.188;7.838;2022-10-26T07:17:59;100758.56;;;14.83;66.53
29371;BME280;16357;52.188;7.838;2022-10-26T07:20:26;100762.41;;;14.89;66.21
29371;BME280;16357;52.188;7.838;2022-10-26T07:22:54;100762.50;;;14.96;66.14
29371;BME280;16357;52.188;7.838;2022-10-26T07:25:21;100760.94;;;15.01;66.03
29371;BME280;16357;52.188;7.838;2022-10-26T07:27:48;100775.56;;;15.07;65.62
29371;BME280;16357;52.188;7.838;2022-10-26T07:30:15;100767.75;;;15.12;65.86
29371;BME280;16357;52.188;7.838;2022-10-26T07:32:41;100763.25;;;15.19;65.56
29371;BME280;16357;52.188;7.838;2022-10-26T07:35:08;100764.19;;;15.26;65.64
29371;BME280;16357;52.188;7.838;2022-10-26T07:37:34;100767.16;;;15.31;65.26
29371;BME280;16357;52.188;7.838;2022-10-26T07:40:01;100773.50;;;15.39;65.54
29371;BME280;16357;52.188;7.838;2022-10-26T07:42:32;100769.03;;;15.46;65.28
29371;BME280;16357;52.188;7.838;2022-10-26T07:44:58;100765.56;;;15.52;65.43
29371;BME280;16357;52.188;7.838;2022-10-26T07:47:25;100766.50;;;15.59;64.93
29371;BME280;16357;52.188;7.838;2022-10-26T07:49:51;100771.81;;;15.67;65.20
29371;BME280;16357;52.188;7.838;2022-10-26T07:52:17;100772.94;;;15.73;65.25
29371;BME280;16357;52.188;7.838;2022-10-26T07:54:44;100773.00;;;15.79;64.88
29371;BME280;16357;52.188;7.838;2022-10-26T07:57:10;100772.94;;;15.88;64.58
29371;BME280;16357;52.188;7.838;2022-10-26T07:59:37;100776.72;;;15.93;64.63
29371;BME280;16357;52.188;7.838;2022-10-26T08:02:03;100768.88;;;15.98;64.41
29371;BME280;16357;52.188;7.838;2022-10-26T08:04:29;100770.81;;;16.05;64.35
29371;BME280;16357;52.188;7.838;2022-10-26T08:06:56;100771.06;;;16.10;64.52
29371;BME280;16357;52.188;7.838;2022-10-26T08:09:22;100769.47;;;16.15;64.08
29371;BME280;16357;52.188;7.838;2022-10-26T08:11:49;100763.47;;;16.20;63.72
29371;BME280;16357;52.188;7.838;2022-10-26T08:14:15;100767.47;;;16.24;63.81
29371;BME280;16357;52.188;7.838;2022-10-26T08:16:41;100771.25;;;16.30;64.24
29371;BME280;16357;52.188;7.838;2022-10-26T08:19:08;100770.50;;;16.36;63.56
29371;BME280;16357;52.188;7.838;2022-10-26T08:21:34;100759.94;;;16.41;63.65
29371;BME280;16357;52.188;7.838;2022-10-26T08:24:05;100768.94;;;16.48;63.55
29371;BME280;16357;52.188;7.838;2022-10-26T08:26:32;100769.19;;;16.53;63.00
29371;BME280;16357;52.188;7.838;2022-10-26T08:28:58;100767.38;;;16.60;63.18
29371;BME280;16357;52.188;7.838;2022-10-26T08:31:24;100763.28;;;16.64;62.89
29371;BME280;16357;52.188;7.838;2022-10-26T08:33:51;100761.44;;;16.72;62.77
29371;BME280;16357;52.188;7.838;2022-10-26T08:36:22;100766.75;;;16.80;62.89
29371;BME280;16357;52.188;7.838;2022-10-26T08:38:49;100759.72;;;16.85;62.87
29371;BME280;16357;52.188;7.838;2022-10-26T08:41:15;100752.66;;;16.91;62.62
29371;BME280;16357;52.188;7.838;2022-10-26T08:43:47;100750.63;;;17.00;62.66
29371;BME280;16357;52.188;7.838;2022-10-26T08:46:20;100746.94;;;17.07;62.67
29371;BME280;16357;52.188;7.838;2022-10-26T08:48:51;100742.41;;;17.15;62.31
29371;BME280;16357;52.188;7.838;2022-10-26T08:51:22;100743.25;;;17.22;62.23
29371;BME280;16357;52.188;7.838;2022-10-26T08:53:56;100744.78;;;17.31;61.48
29371;BME280;16357;52.188;7.838;2022-10-26T08:56:40;100733.75;;;17.39;61.61
29371;BME280;16357;52.188;7.838;2022-10-26T09:01:56;100738.00;;;17.55;61.30
29371;BME280;16357;52.188;7.838;2022-10-26T09:04:27;100724.06;;;17.65;61.34
29371;BME280;16357;52.188;7.838;2022-10-26T09:07:23;100730.97;;;17.74;61.38
29371;BME280;16357;52.188;7.838;2022-10-26T09:12:53;100716.44;;;17.95;61.15
29371;BME280;16357;52.188;7.838;2022-10-26T09:15:36;100728.78;;;18.11;61.08
29371;BME280;16357;52.188;7.838;2022-10-26T09:26:52;100739.94;;;18.76;59.98
29371;BME280;16357;52.188;7.838;2022-10-26T09:29:24;100739.09;;;18.89;59.35
29371;BME280;16357;52.188;7.838;2022-10-26T09:31:54;100750.16;;;19.00;58.68
29371;BME280;16357;52.188;7.838;2022-10-26T09:34:28;100750.53;;;19.11;58.63
29371;BME280;16357;52.188;7.838;2022-10-26T09:36:56;100749.50;;;19.18;57.97
29371;BME280;16357;52.188;7.838;2022-10-26T09:39:27;100750.31;;;19.25;57.93
29371;BME280;16357;52.188;7.838;2022-10-26T09:41:59;100749.44;;;19.32;57.73
29371;BME280;16357;52.188;7.838;2022-10-26T09:44:33;100754.88;;;19.38;57.90
29371;BME280;16357;52.188;7.838;2022-10-26T09:47:13;100755.28;;;19.42;57.99
29371;BME280;16357;52.188;7.838;2022-10-26T09:49:55;100768.00;;;19.48;57.61
29371;BME280;16357;52.188;7.838;2022-10-26T09:52:23;100775.97;;;19.49;57.41
29371;BME280;16357;52.188;7.838;2022-10-26T09:54:50;100781.81;;;19.53;56.88
29371;BME280;16357;52.188;7.838;2022-10-26T09:57:18;100785.78;;;19.57;56.98
29371;BME280;16357;52.188;7.838;2022-10-26T09:59:46;100782.00;;;19.58;56.42
29371;BME280;16357;52.188;7.838;2022-10-26T10:02:36;100779.09;;;19.60;56.73
29371;BME280;16357;52.188;7.838;2022-10-26T10:05:32;100792.69;;;19.60;56.62
29371;BME280;16357;52.188;7.838;2022-10-26T10:11:04;100797.31;;;19.52;56.43
29371;BME280;16357;52.188;7.838;2022-10-26T10:13:35;100813.44;;;19.47;56.10
29371;BME280;16357;52.188;7.838;2022-10-26T10:18:32;100816.00;;;19.36;56.01
29371;BME280;16357;52.188;7.838;2022-10-26T10:20:59;100819.34;;;19.31;56.33
29371;BME280;16357;52.188;7.838;2022-10-26T10:23:28;100820.59;;;19.28;56.95
29371;BME280;16357;52.188;7.838;2022-10-26T10:26:00;100831.50;;;19.28;57.36
29371;BME280;16357;52.188;7.838;2022-10-26T10:28:28;100837.56;;;19.30;57.52
29371;BME280;16357;52.188;7.838;2022-10-26T10:31:05;100839.41;;;19.37;57.39
29371;BME280;16357;52.188;7.838;2022-10-26T10:33:39;100840.25;;;19.44;57.63
29371;BME280;16357;52.188;7.838;2022-10-26T10:36:09;100832.28;;;19.49;57.56
29371;BME280;16357;52.188;7.838;2022-10-26T10:38:40;100832.25;;;19.56;57.08
29371;BME280;16357;52.188;7.838;2022-10-26T10:41:28;100830.16;;;19.64;57.09
29371;BME280;16357;52.188;7.838;2022-10-26T10:44:05;100828.06;;;19.73;56.58
29371;BME280;16357;52.188;7.838;2022-10-26T10:46:34;100824.69;;;19.78;56.59
29371;BME280;16357;52.188;7.838;2022-10-26T10:49:05;100829.28;;;19.84;56.55
29371;BME280;16357;52.188;7.838;2022-10-26T10:51:37;100834.09;;;19.88;56.02
29371;BME280;16357;52.188;7.838;2022-10-26T10:54:06;100838.03;;;19.92;55.94
29371;BME280;16357;52.188;7.838;2022-10-26T10:56:48;100841.78;;;19.98;55.90
29371;BME280;16357;52.188;7.838;2022-10-26T11:05:37;100834.59;;;20.10;55.37
29371;BME280;16357;52.188;7.838;2022-10-26T11:08:24;100839.63;;;20.13;55.41
29371;BME280;16357;52.188;7.838;2022-10-26T11:11:17;100826.63;;;20.15;55.49
29371;BME280;16357;52.188;7.838;2022-10-26T11:13:57;100837.69;;;20.21;55.61
29371;BME280;16357;52.188;7.838;2022-10-26T11:20:22;100840.59;;;20.26;55.35
29371;BME280;16357;52.188;7.838;2022-10-26T11:22:21;100822.75;;;20.30;55.50
29371;BME280;16357;52.188;7.838;2022-10-26T11:24:55;100829.44;;;20.34;55.29
29371;BME280;16357;52.188;7.838;2022-10-26T11:27:35;100824.38;;;20.37;55.41
29371;BME280;16357;52.188;7.838;2022-10-26T11:30:12;100832.75;;;20.43;55.45
29371;BME280;16357;52.188;7.838;2022-10-26T11:32:44;100838.78;;;20.51;55.47
29371;BME280;16357;52.188;7.838;2022-10-26T11:35:17;100832.28;;;20.59;55.09
29371;BME280;16357;52.188;7.838;2022-10-26T11:44:10;100831.22;;;20.85;55.07
29371;BME280;16357;52.188;7.838;2022-10-26T11:46:38;100839.13;;;20.93;54.68
29371;BME280;16357;52.188;7.838;2022-10-26T11:49:15;100835.28;;;21.01;54.70
29371;BME280;16357;52.188;7.838;2022-10-26T11:51:55;100828.13;;;21.07;54.69
29371;BME280;16357;52.188;7.838;2022-10-26T11:54:34;100837.88;;;21.14;54.49
29371;BME280;16357;52.188;7.838;2022-10-26T11:57:03;100830.09;;;21.18;54.00
29371;BME280;16357;52.188;7.838;2022-10-26T11:59:34;100825.44;;;21.25;53.97
29371;BME280;16357;52.188;7.838;2022-10-26T12:02:13;100825.34;;;21.32;53.87
29371;BME280;16357;52.188;7.838;2022-10-26T12:04:41;100829.06;;;21.37;53.88
29371;BME280;16357;52.188;7.838;2022-10-26T12:07:16;100835.31;;;21.44;54.26
29371;BME280;16357;52.188;7.838;2022-10-26T12:09:45;100841.56;;;21.52;53.49
29371;BME280;16357;52.188;7.838;2022-10-26T12:12:27;100838.53;;;21.60;53.66
29371;BME280;16357;52.188;7.838;2022-10-26T12:15:22;100830.03;;;21.68;53.28
29371;BME280;16357;52.188;7.838;2022-10-26T12:21:17;100841.00;;;21.80;52.57
29371;BME280;16357;52.188;7.838;2022-10-26T12:24:01;100842.03;;;21.85;52.88
29371;BME280;16357;52.188;7.838;2022-10-26T12:34:12;100855.06;;;22.02;53.89
29371;BME280;16357;52.188;7.838;2022-10-26T12:39:36;100864.72;;;22.16;53.21
29371;BME280;16357;52.188;7.838;2022-10-26T12:49:59;100867.75;;;22.45;52.86
29371;BME280;16357;52.188;7.838;2022-10-26T13:00:24;100880.06;;;22.66;52.25
29371;BME280;16357;52.188;7.838;2022-10-26T13:05:57;100873.78;;;22.77;51.97
29371;BME280;16357;52.188;7.838;2022-10-26T13:08:26;100877.13;;;22.79;51.56
29371;BME280;16357;52.188;7.838;2022-10-26T13:11:29;100876.19;;;22.85;51.59
29371;BME280;16357;52.188;7.838;2022-10-26T13:14:00;100887.72;;;22.87;51.74
29371;BME280;16357;52.188;7.838;2022-10-26T13:16:28;100885.81;;;22.88;51.61
29371;BME280;16357;52.188;7.838;2022-10-26T13:18:55;100879.28;;;22.89;51.25
29371;BME280;16357;52.188;7.838;2022-10-26T13:21:24;100886.44;;;22.90;50.86
29371;BME280;16357;52.188;7.838;2022-10-26T13:26:28;100882.63;;;22.91;50.65
29371;BME280;16357;52.188;7.838;2022-10-26T13:29:02;100891.91;;;22.90;51.03
29371;BME280;16357;52.188;7.838;2022-10-26T13:33:58;100889.41;;;22.88;50.64
29371;BME280;16357;52.188;7.838;2022-10-26T13:36:31;100892.97;;;22.89;50.43
29371;BME280;16357;52.188;7.838;2022-10-26T13:39:04;100888.56;;;22.88;50.60
29371;BME280;16357;52.188;7.838;2022-10-26T13:41:36;100889.63;;;22.87;50.72
29371;BME280;16357;52.188;7.838;2022-10-26T13:44:14;100887.72;;;22.87;50.81
29371;BME280;16357;52.188;7.838;2022-10-26T13:46:44;100880.81;;;22.85;50.49
29371;BME280;16357;52.188;7.838;2022-10-26T13:49:24;100896.19;;;22.86;50.64
29371;BME280;16357;52.188;7.838;2022-10-26T13:51:52;100897.50;;;22.83;50.92
29371;BME280;16357;52.188;7.838;2022-10-26T13:54:27;100897.25;;;22.85;51.03
29371;BME280;16357;52.188;7.838;2022-10-26T13:57:21;100893.44;;;22.86;51.29
29371;BME280;16357;52.188;7.838;2022-10-26T13:59:56;100906.28;;;22.85;51.34
29371;BME280;16357;52.188;7.838;2022-10-26T14:02:29;100902.09;;;22.83;50.95
29371;BME280;16357;52.188;7.838;2022-10-26T14:05:03;100905.91;;;22.82;50.91
29371;BME280;16357;52.188;7.838;2022-10-26T14:10:03;100907.22;;;22.79;50.76
29371;BME280;16357;52.188;7.838;2022-10-26T14:12:30;100911.03;;;22.78;51.39
29371;BME280;16357;52.188;7.838;2022-10-26T14:15:04;100913.97;;;22.76;51.02
29371;BME280;16357;52.188;7.838;2022-10-26T14:17:32;100914.47;;;22.73;51.06
29371;BME280;16357;52.188;7.838;2022-10-26T14:19:58;100927.31;;;22.73;51.02
29371;BME280;16357;52.188;7.838;2022-10-26T14:22:27;100931.94;;;22.72;51.40
29371;BME280;16357;52.188;7.838;2022-10-26T14:24:57;100924.19;;;22.69;51.11
29371;BME280;16357;52.188;7.838;2022-10-26T14:27:26;100930.13;;;22.66;51.80
29371;BME280;16357;52.188;7.838;2022-10-26T14:29:56;100933.94;;;22.65;51.22
29371;BME280;16357;52.188;7.838;2022-10-26T14:32:42;100932.50;;;22.63;51.37
29371;BME280;16357;52.188;7.838;2022-10-26T14:35:13;100923.69;;;22.61;51.12
29371;BME280;16357;52.188;7.838;2022-10-26T14:37:47;100938.66;;;22.58;51.62
29371;BME280;16357;52.188;7.838;2022-10-26T14:40:16;100934.00;;;22.58;52.04
29371;BME280;16357;52.188;7.838;2022-10-26T14:42:44;100936.59;;;22.53;51.42
29371;BME280;16357;52.188;7.838;2022-10-26T14:45:30;100941.72;;;22.50;51.50
29371;BME280;16357;52.188;7.838;2022-10-26T14:48:31;100943.47;;;22.44;51.43
29371;BME280;16357;52.188;7.838;2022-10-26T14:51:14;100939.75;;;22.39;51.48
29371;BME280;16357;52.188;7.838;2022-10-26T14:53:48;100947.56;;;22.35;51.78
29371;BME280;16357;52.188;7.838;2022-10-26T15:02:00;100954.16;;;22.27;52.20